Time;durP1;ratioP1;P1;durP2;ratioP2;P2;SDS_P1;SDS_P2;PMS_P1;PMS_P2;Temp;Humidity;BMP_temperature;BMP_pressure;BME280_temperature;BME280_humidity;BME280_pressure;Samples;Min_cycle;Max_cycle;Signal;HPM_P1;HPM_P2
2021/09/17 00:00:32;;;;;;;5.45;2.67;;;28.50;99.90;;;;;;4198329;28;20086;-67
2021/09/17 00:02:36;;;;;;;6.07;2.83;;;28.60;99.90;;;;;;4198712;28;20131;-67
2021/09/17 00:04:42;;;;;;;5.20;2.70;;;28.50;99.90;;;;;;4197455;28;20406;-67
2021/09/17 00:06:47;;;;;;;4.25;2.80;;;28.60;99.90;;;;;;4198476;28;20133;-68
2021/09/17 00:08:52;;;;;;;5.35;2.85;;;28.60;99.90;;;;;;4197679;28;20561;-68
2021/09/17 00:10:57;;;;;;;6.45;3.00;;;28.60;99.90;;;;;;4196104;28;20056;-68
2021/09/17 00:13:01;;;;;;;7.30;2.95;;;28.60;99.90;;;;;;4190167;28;20578;-68
2021/09/17 00:15:07;;;;;;;8.02;3.30;;;28.70;99.90;;;;;;4195496;28;20055;-68
2021/09/17 00:17:12;;;;;;;7.15;2.70;;;28.70;99.90;;;;;;4196600;28;20076;-68
2021/09/17 00:19:16;;;;;;;6.88;2.80;;;28.70;99.90;;;;;;4195942;28;20028;-67
2021/09/17 00:21:21;;;;;;;4.65;2.85;;;28.70;99.90;;;;;;4197850;28;20076;-68
2021/09/17 00:23:26;;;;;;;7.32;3.60;;;28.80;99.90;;;;;;4194555;28;20040;-68
2021/09/17 00:25:30;;;;;;;5.40;3.55;;;28.80;99.90;;;;;;4180395;28;20462;-68
2021/09/17 00:27:35;;;;;;;6.07;3.83;;;28.80;99.90;;;;;;4197558;28;20363;-68
2021/09/17 00:29:40;;;;;;;6.50;4.10;;;28.80;99.90;;;;;;4194875;28;20510;-68
2021/09/17 00:31:44;;;;;;;5.88;4.10;;;28.80;99.90;;;;;;4191645;28;20047;-69
2021/09/17 00:33:48;;;;;;;9.55;5.25;;;28.80;99.90;;;;;;4180465;28;20056;-70
2021/09/17 00:35:53;;;;;;;7.15;4.70;;;28.80;99.90;;;;;;4197583;28;20041;-69
2021/09/17 00:37:57;;;;;;;6.20;4.72;;;28.90;99.90;;;;;;4197296;28;20411;-68
2021/09/17 00:40:02;;;;;;;7.68;4.60;;;28.90;99.90;;;;;;4195267;28;20518;-68
2021/09/17 00:42:06;;;;;;;7.93;4.65;;;28.90;99.90;;;;;;4197544;28;20071;-68
2021/09/17 00:44:11;;;;;;;6.43;4.38;;;28.90;99.90;;;;;;4197839;28;20522;-68
2021/09/17 00:46:16;;;;;;;7.60;5.50;;;28.90;99.90;;;;;;4197185;28;20079;-68
2021/09/17 00:48:21;;;;;;;8.57;4.90;;;28.90;99.90;;;;;;4198735;28;20037;-68
2021/09/17 00:50:25;;;;;;;6.68;4.28;;;29.00;99.90;;;;;;4197652;28;20044;-68
2021/09/17 00:52:30;;;;;;;6.82;4.68;;;29.00;99.90;;;;;;4196584;28;20502;-67
2021/09/17 00:54:35;;;;;;;9.10;4.80;;;29.00;99.90;;;;;;4196516;28;20071;-68
2021/09/17 00:56:40;;;;;;;6.28;4.35;;;29.00;99.90;;;;;;4195249;28;20574;-67
2021/09/17 00:58:44;;;;;;;7.10;4.80;;;29.00;99.90;;;;;;4194474;28;20113;-68
2021/09/17 01:00:48;;;;;;;7.25;5.15;;;29.00;99.90;;;;;;4195480;28;20132;-68
2021/09/17 01:02:53;;;;;;;7.70;5.10;;;29.00;99.90;;;;;;4195930;28;20044;-67
2021/09/17 01:04:58;;;;;;;11.32;5.38;;;29.00;99.90;;;;;;4197674;28;20058;-68
2021/09/17 01:07:06;;;;;;;6.00;5.05;;;29.10;99.90;;;;;;4177612;28;20942;-68
2021/09/17 01:09:10;;;;;;;7.35;4.38;;;29.10;99.90;;;;;;4198025;28;20041;-68
2021/09/17 01:11:39;;;;;;;8.05;4.82;;;29.20;99.90;;;;;;4195669;28;20525;-68
2021/09/17 01:13:46;;;;;;;6.18;5.00;;;29.20;99.90;;;;;;4196541;28;20044;-69
2021/09/17 01:15:52;;;;;;;7.03;4.53;;;29.30;99.90;;;;;;4180033;28;20095;-70
2021/09/17 01:17:59;;;;;;;7.45;4.75;;;29.30;99.90;;;;;;4179976;28;20468;-68
2021/09/17 01:20:06;;;;;;;7.38;4.72;;;29.40;99.90;;;;;;4194615;28;20106;-69
2021/09/17 01:22:13;;;;;;;8.13;5.00;;;29.50;99.90;;;;;;4190518;28;20044;-69
2021/09/17 01:24:18;;;;;;;9.52;5.10;;;29.50;99.90;;;;;;4178557;28;20041;-68
2021/09/17 01:26:23;;;;;;;7.13;4.97;;;29.50;99.90;;;;;;4196806;28;20474;-68
2021/09/17 01:28:30;;;;;;;7.60;4.60;;;29.50;99.90;;;;;;4176594;28;20602;-68
2021/09/17 01:30:34;;;;;;;6.03;4.55;;;29.60;99.90;;;;;;4179381;28;20041;-68
2021/09/17 01:32:42;;;;;;;9.85;5.03;;;29.60;99.90;;;;;;4195802;28;20457;-68
2021/09/17 01:34:47;;;;;;;7.32;4.40;;;29.50;99.90;;;;;;4176992;28;20075;-69
2021/09/17 01:36:52;;;;;;;6.45;4.63;;;29.60;99.90;;;;;;4194197;28;20536;-68
2021/09/17 01:38:57;;;;;;;6.25;4.13;;;29.70;99.90;;;;;;4194991;28;20075;-69
2021/09/17 01:41:02;;;;;;;5.60;4.43;;;29.80;99.90;;;;;;4195076;28;20043;-69
2021/09/17 01:43:12;;;;;;;5.53;4.30;;;29.80;99.90;;;;;;4195110;28;20028;-70
2021/09/17 01:45:17;;;;;;;6.00;4.07;;;29.80;99.90;;;;;;4195323;28;20059;-69
2021/09/17 01:47:22;;;;;;;5.80;4.00;;;29.90;99.90;;;;;;4196121;28;20044;-69
2021/09/17 01:49:27;;;;;;;8.32;4.30;;;30.00;99.90;;;;;;4179172;28;20135;-68
2021/09/17 01:51:31;;;;;;;8.10;4.05;;;30.00;99.90;;;;;;4178943;28;20585;-68
2021/09/17 01:53:36;;;;;;;9.38;4.10;;;30.10;99.90;;;;;;4194207;28;20052;-68
2021/09/17 01:55:41;;;;;;;6.50;3.85;;;30.10;99.90;;;;;;4195014;28;20603;-68
2021/09/17 01:57:46;;;;;;;5.68;3.60;;;30.10;99.90;;;;;;4195761;28;20045;-68
2021/09/17 01:59:51;;;;;;;5.80;4.20;;;30.20;99.90;;;;;;4195954;28;20044;-67
2021/09/17 02:01:56;;;;;;;4.90;3.70;;;30.20;99.90;;;;;;4192899;28;20864;-71
2021/09/17 02:04:01;;;;;;;7.15;4.47;;;30.30;99.90;;;;;;4194630;28;20497;-68
2021/09/17 02:06:06;;;;;;;6.38;4.13;;;30.40;99.90;;;;;;4195708;28;20064;-68
2021/09/17 02:08:10;;;;;;;6.15;4.05;;;30.40;99.90;;;;;;4193255;28;20095;-68
2021/09/17 02:10:16;;;;;;;5.15;3.60;;;30.50;99.90;;;;;;4196166;28;20048;-68
2021/09/17 02:12:20;;;;;;;8.00;3.92;;;30.50;99.90;;;;;;4194237;28;20047;-67
2021/09/17 02:14:25;;;;;;;7.95;3.97;;;30.60;99.90;;;;;;4192363;28;20072;-68
2021/09/17 02:16:31;;;;;;;6.40;3.80;;;30.70;99.90;;;;;;4194384;28;20070;-67
2021/09/17 02:18:35;;;;;;;9.25;3.70;;;30.70;99.90;;;;;;4194526;28;20044;-68
2021/09/17 02:20:40;;;;;;;5.72;3.47;;;30.80;99.90;;;;;;4194424;28;20537;-68
2021/09/17 02:22:46;;;;;;;5.22;3.58;;;30.80;99.90;;;;;;4192967;28;20455;-68
2021/09/17 02:24:50;;;;;;;5.45;3.72;;;30.80;99.90;;;;;;4193857;28;20119;-68
2021/09/17 02:26:54;;;;;;;4.45;3.67;;;30.90;99.90;;;;;;4193177;28;20091;-68
2021/09/17 02:28:59;;;;;;;5.55;3.42;;;30.90;99.90;;;;;;4178531;28;20120;-69
2021/09/17 02:31:04;;;;;;;5.13;3.60;;;30.90;99.90;;;;;;4193427;28;20036;-70
2021/09/17 02:33:10;;;;;;;5.43;3.70;;;30.80;99.90;;;;;;4188866;28;20059;-69
2021/09/17 02:35:14;;;;;;;6.53;3.63;;;30.90;99.90;;;;;;4194021;28;20142;-69
2021/09/17 02:37:19;;;;;;;5.78;3.78;;;30.90;99.90;;;;;;4194322;28;20063;-69
2021/09/17 02:39:24;;;;;;;5.22;3.70;;;31.00;99.90;;;;;;4193310;28;20045;-68
2021/09/17 02:41:28;;;;;;;3.67;3.38;;;31.00;99.90;;;;;;4178009;28;20470;-69
2021/09/17 02:43:33;;;;;;;5.22;3.58;;;31.10;99.90;;;;;;4194678;28;20040;-68
2021/09/17 02:45:37;;;;;;;5.30;3.17;;;31.20;99.90;;;;;;4194004;28;20127;-68
2021/09/17 02:47:42;;;;;;;5.25;3.25;;;31.40;99.90;;;;;;4194664;28;20101;-69
2021/09/17 02:49:47;;;;;;;6.50;3.85;;;31.40;99.90;;;;;;4191601;28;20052;-69
2021/09/17 02:51:51;;;;;;;5.78;3.22;;;31.40;99.90;;;;;;4191596;28;20071;-69
2021/09/17 02:53:58;;;;;;;4.68;3.20;;;31.50;99.90;;;;;;4194041;28;20058;-69
2021/09/17 02:56:02;;;;;;;3.97;3.42;;;31.60;99.90;;;;;;4194215;28;20048;-68
2021/09/17 02:58:07;;;;;;;3.83;3.13;;;31.60;99.90;;;;;;4161244;28;20087;-69
2021/09/17 03:00:12;;;;;;;3.50;3.17;;;31.60;99.90;;;;;;4192802;28;20028;-68
2021/09/17 03:02:20;;;;;;;4.60;3.30;;;31.60;99.90;;;;;;4178027;28;20041;-68
2021/09/17 03:04:24;;;;;;;4.18;2.97;;;31.50;99.90;;;;;;4177432;28;20045;-69
2021/09/17 03:06:29;;;;;;;5.05;3.05;;;31.40;99.90;;;;;;4192472;28;20437;-68
2021/09/17 03:08:33;;;;;;;4.65;3.03;;;31.40;99.90;;;;;;4195733;28;20090;-69
2021/09/17 03:10:38;;;;;;;3.72;3.05;;;31.60;99.90;;;;;;4193708;28;20048;-68
2021/09/17 03:12:42;;;;;;;7.38;3.53;;;31.70;99.90;;;;;;4193967;28;20037;-69
2021/09/17 03:14:49;;;;;;;5.30;3.35;;;31.70;99.90;;;;;;4196140;28;20072;-67
2021/09/17 03:16:54;;;;;;;3.92;2.72;;;31.80;99.90;;;;;;4194329;28;20502;-70
2021/09/17 03:18:58;;;;;;;9.73;3.53;;;31.80;99.90;;;;;;4195440;28;20056;-69
2021/09/17 03:21:02;;;;;;;4.97;2.72;;;31.80;99.90;;;;;;4193247;28;20053;-69
2021/09/17 03:23:08;;;;;;;5.03;2.95;;;31.90;99.90;;;;;;4192808;28;20037;-68
2021/09/17 03:25:12;;;;;;;3.30;2.60;;;31.90;99.90;;;;;;4194292;28;20471;-67
2021/09/17 03:27:16;;;;;;;4.57;2.90;;;32.00;99.90;;;;;;4194415;28;20044;-67
2021/09/17 03:29:21;;;;;;;5.47;2.58;;;31.90;99.90;;;;;;4195341;28;20482;-67
2021/09/17 03:31:26;;;;;;;3.50;2.80;;;32.00;99.90;;;;;;4194046;28;20063;-69
2021/09/17 03:33:30;;;;;;;5.53;2.58;;;32.00;99.90;;;;;;4177268;28;20049;-69
2021/09/17 03:35:34;;;;;;;5.32;2.80;;;32.00;99.90;;;;;;4195882;28;20044;-68
2021/09/17 03:37:38;;;;;;;2.65;2.40;;;32.00;99.90;;;;;;4195196;28;20477;-69
2021/09/17 03:39:43;;;;;;;3.80;2.60;;;32.20;99.90;;;;;;4194570;28;20044;-67
2021/09/17 03:41:47;;;;;;;5.13;2.38;;;32.30;99.90;;;;;;4192403;28;20052;-70
2021/09/17 03:43:52;;;;;;;3.92;2.55;;;32.00;99.90;;;;;;4155143;28;20034;-68
2021/09/17 03:45:56;;;;;;;5.45;2.45;;;31.90;99.90;;;;;;4191933;28;20189;-69
2021/09/17 03:48:08;;;;;;;5.13;2.30;;;31.90;99.90;;;;;;4190799;28;20049;-69
2021/09/17 03:50:12;;;;;;;6.10;2.80;;;31.80;99.90;;;;;;4190316;28;20179;-67
2021/09/17 03:52:17;;;;;;;2.88;2.20;;;31.80;99.90;;;;;;4190315;28;20592;-67
2021/09/17 03:54:24;;;;;;;5.55;2.40;;;31.80;99.90;;;;;;4191185;28;20051;-68
2021/09/17 03:56:29;;;;;;;4.13;2.30;;;31.90;99.90;;;;;;4192880;28;20075;-68
2021/09/17 03:58:33;;;;;;;4.22;2.10;;;32.00;99.90;;;;;;4192680;28;20055;-68
2021/09/17 04:00:38;;;;;;;2.72;2.03;;;32.20;99.90;;;;;;4191670;28;20170;-68
2021/09/17 04:02:42;;;;;;;3.15;2.40;;;32.30;99.90;;;;;;4174038;28;20051;-68
2021/09/17 04:04:47;;;;;;;5.35;2.15;;;32.40;99.90;;;;;;4191675;28;20547;-68
2021/09/17 04:06:51;;;;;;;3.22;2.17;;;32.50;99.90;;;;;;4190879;28;20044;-69
2021/09/17 04:08:56;;;;;;;3.72;2.08;;;32.60;99.90;;;;;;4192391;28;20045;-68
2021/09/17 04:11:00;;;;;;;3.75;2.30;;;32.60;99.90;;;;;;4192127;28;20090;-69
2021/09/17 04:13:05;;;;;;;2.83;2.00;;;32.70;99.90;;;;;;4192246;28;20478;-69
2021/09/17 04:15:09;;;;;;;3.72;1.90;;;32.70;99.90;;;;;;4191098;28;20047;-69
2021/09/17 04:17:14;;;;;;;3.35;2.05;;;32.70;99.90;;;;;;4192106;28;20043;-68
2021/09/17 04:19:18;;;;;;;3.17;1.80;;;32.70;99.90;;;;;;4176004;28;20045;-69
2021/09/17 04:21:23;;;;;;;3.25;1.92;;;32.50;99.90;;;;;;4189894;28;20328;-69
2021/09/17 04:23:28;;;;;;;3.55;2.00;;;32.50;99.90;;;;;;4192785;28;20051;-69
2021/09/17 04:25:32;;;;;;;3.10;2.38;;;32.50;99.90;;;;;;4191823;28;20534;-68
2021/09/17 04:27:37;;;;;;;2.80;2.50;;;32.50;99.90;;;;;;4192806;28;20043;-69
2021/09/17 04:29:42;;;;;;;3.42;2.42;;;32.40;99.90;;;;;;4192302;28;20469;-69
2021/09/17 04:31:46;;;;;;;6.28;2.60;;;32.30;99.90;;;;;;4191399;28;20037;-69
2021/09/17 04:33:51;;;;;;;4.30;2.88;;;32.30;99.90;;;;;;4192647;28;20062;-69
2021/09/17 04:35:55;;;;;;;3.78;2.35;;;32.30;99.90;;;;;;4192813;28;20052;-68
2021/09/17 04:38:00;;;;;;;2.63;2.22;;;32.30;99.90;;;;;;4191436;28;20118;-68
2021/09/17 04:40:05;;;;;;;2.28;1.92;;;32.40;99.90;;;;;;4192264;28;20037;-68
2021/09/17 04:42:10;;;;;;;3.10;2.30;;;32.40;99.90;;;;;;4191934;28;20425;-68
2021/09/17 04:44:14;;;;;;;3.08;2.35;;;32.40;99.90;;;;;;4208666;28;20044;-69
2021/09/17 04:46:19;;;;;;;3.10;2.53;;;32.30;99.90;;;;;;4193849;28;20071;-68
2021/09/17 04:48:23;;;;;;;3.03;2.35;;;32.30;99.90;;;;;;4179634;28;20049;-68
2021/09/17 04:50:27;;;;;;;3.63;2.70;;;32.40;99.90;;;;;;4178373;28;20139;-68
2021/09/17 04:52:32;;;;;;;3.90;2.92;;;32.30;99.90;;;;;;4173898;28;20052;-69
2021/09/17 04:54:38;;;;;;;4.47;3.20;;;32.30;99.90;;;;;;4193978;28;20054;-70
2021/09/17 04:56:42;;;;;;;3.95;2.40;;;32.30;99.90;;;;;;4176538;28;20132;-68
2021/09/17 04:58:47;;;;;;;4.20;2.50;;;32.30;99.90;;;;;;4194329;28;20411;-68
2021/09/17 05:00:51;;;;;;;4.10;2.45;;;32.20;99.90;;;;;;4195328;28;20118;-68
2021/09/17 05:02:56;;;;;;;3.25;2.10;;;32.20;99.90;;;;;;4194334;28;20048;-68
2021/09/17 05:05:01;;;;;;;4.28;1.98;;;32.20;99.80;;;;;;4191286;28;20072;-71
2021/09/17 05:07:06;;;;;;;2.97;2.28;;;32.10;99.90;;;;;;4193089;28;20049;-69
2021/09/17 05:09:10;;;;;;;3.13;2.10;;;32.20;99.90;;;;;;4194695;28;20037;-69
2021/09/17 05:11:15;;;;;;;3.03;2.47;;;32.20;99.90;;;;;;4160009;28;20593;-68
2021/09/17 05:13:19;;;;;;;5.90;2.65;;;32.20;99.90;;;;;;4195649;28;20282;-69
2021/09/17 05:15:24;;;;;;;3.88;2.50;;;32.10;99.90;;;;;;4192012;28;20071;-69
2021/09/17 05:17:28;;;;;;;4.15;2.70;;;32.10;99.90;;;;;;4193937;28;20063;-69
2021/09/17 05:19:32;;;;;;;3.03;2.42;;;32.20;99.90;;;;;;4195451;28;20052;-68
2021/09/17 05:21:37;;;;;;;5.40;3.20;;;32.10;99.90;;;;;;4193986;28;20041;-69
2021/09/17 05:23:42;;;;;;;3.78;3.30;;;31.90;99.90;;;;;;4193650;28;20037;-68
2021/09/17 05:25:46;;;;;;;3.65;3.08;;;31.70;99.90;;;;;;4176218;28;20068;-70
2021/09/17 05:27:51;;;;;;;5.32;3.10;;;31.70;99.90;;;;;;4193889;28;20391;-69
2021/09/17 05:29:55;;;;;;;5.43;3.03;;;31.80;99.90;;;;;;4194159;28;20051;-69
2021/09/17 05:32:00;;;;;;;4.90;3.05;;;31.90;99.90;;;;;;4193284;28;20423;-69
2021/09/17 05:34:05;;;;;;;6.57;3.28;;;31.80;99.90;;;;;;4193250;28;20098;-69
2021/09/17 05:36:10;;;;;;;5.90;3.13;;;31.70;99.90;;;;;;4193144;28;20037;-69
2021/09/17 05:38:14;;;;;;;5.68;3.35;;;31.70;99.90;;;;;;4194677;28;20037;-69
2021/09/17 05:40:19;;;;;;;4.00;3.50;;;31.70;99.90;;;;;;4196672;28;20399;-69
2021/09/17 05:42:23;;;;;;;4.18;3.40;;;31.70;99.90;;;;;;4193822;28;20064;-69
2021/09/17 05:44:28;;;;;;;7.95;3.58;;;31.70;99.90;;;;;;4194572;28;20048;-69
2021/09/17 05:46:32;;;;;;;5.38;3.40;;;31.80;99.90;;;;;;4176973;28;20041;-69
2021/09/17 05:48:37;;;;;;;5.30;3.45;;;31.70;99.90;;;;;;4177772;28;20056;-70
2021/09/17 05:50:41;;;;;;;5.18;3.40;;;31.70;99.90;;;;;;4200703;28;20135;-70
2021/09/17 05:52:46;;;;;;;5.45;2.92;;;31.80;99.90;;;;;;4177030;28;20259;-69
2021/09/17 05:54:51;;;;;;;4.80;2.72;;;31.80;99.90;;;;;;4193341;28;20474;-69
2021/09/17 05:56:55;;;;;;;3.67;2.80;;;31.70;99.90;;;;;;4191271;28;20457;-69
2021/09/17 05:59:00;;;;;;;4.60;3.20;;;31.70;99.90;;;;;;4193376;28;20534;-69
2021/09/17 06:01:07;;;;;;;3.90;2.90;;;31.80;99.90;;;;;;4193177;28;20560;-69
2021/09/17 06:03:12;;;;;;;6.47;2.90;;;31.90;99.90;;;;;;4185891;28;20113;-69
2021/09/17 06:05:16;;;;;;;3.40;3.10;;;31.90;99.90;;;;;;4193485;28;20048;-69
2021/09/17 06:07:21;;;;;;;4.97;3.00;;;31.80;99.90;;;;;;4174644;28;20056;-69
2021/09/17 06:09:25;;;;;;;3.65;2.97;;;31.80;99.90;;;;;;4192215;28;21042;-70
2021/09/17 06:11:30;;;;;;;3.85;3.08;;;31.70;99.90;;;;;;4191737;28;20040;-69
2021/09/17 06:13:35;;;;;;;3.58;2.60;;;31.70;99.90;;;;;;4176069;28;20131;-70
2021/09/17 06:15:39;;;;;;;3.10;2.65;;;31.80;99.90;;;;;;4193528;28;20127;-70
2021/09/17 06:17:45;;;;;;;4.18;3.10;;;31.70;99.90;;;;;;4194423;28;20056;-70
2021/09/17 06:19:49;;;;;;;3.28;2.90;;;31.80;99.90;;;;;;4174240;28;20049;-70
2021/09/17 06:21:53;;;;;;;6.07;3.10;;;31.90;99.90;;;;;;4168424;28;20045;-70
2021/09/17 06:23:58;;;;;;;3.03;2.60;;;32.00;99.90;;;;;;4189589;28;20049;-70
2021/09/17 06:26:02;;;;;;;2.60;2.30;;;32.00;99.90;;;;;;4209305;28;20056;-69
2021/09/17 06:28:07;;;;;;;3.55;2.80;;;31.70;99.90;;;;;;4192692;28;20079;-70
2021/09/17 06:30:12;;;;;;;3.78;2.90;;;31.80;99.90;;;;;;4193354;28;20055;-68
2021/09/17 06:32:16;;;;;;;2.97;2.60;;;31.90;99.90;;;;;;4176484;28;20577;-68
2021/09/17 06:34:20;;;;;;;7.65;3.17;;;31.80;99.90;;;;;;4193097;28;20135;-70
2021/09/17 06:36:25;;;;;;;4.40;2.70;;;31.80;99.90;;;;;;4193331;28;20444;-70
2021/09/17 06:38:30;;;;;;;4.15;2.70;;;31.70;99.90;;;;;;4175574;28;20049;-69
2021/09/17 06:40:35;;;;;;;4.18;2.42;;;31.80;99.90;;;;;;4191267;28;20044;-69
2021/09/17 06:42:39;;;;;;;3.78;2.92;;;31.90;99.90;;;;;;4176011;28;20107;-70
2021/09/17 06:44:43;;;;;;;4.32;2.60;;;31.80;99.90;;;;;;4193360;28;20063;-70
2021/09/17 06:46:49;;;;;;;4.97;2.80;;;31.80;99.90;;;;;;4193016;28;20044;-70
2021/09/17 06:48:54;;;;;;;4.07;2.60;;;31.70;99.90;;;;;;4193464;28;20483;-69
2021/09/17 06:50:59;;;;;;;4.57;2.92;;;31.80;99.90;;;;;;4191806;28;20056;-68
2021/09/17 06:53:04;;;;;;;3.15;2.67;;;31.90;99.90;;;;;;4194555;28;20055;-67
2021/09/17 06:55:09;;;;;;;3.80;3.00;;;32.00;99.90;;;;;;4193961;28;20060;-70
2021/09/17 06:57:17;;;;;;;5.53;2.85;;;32.00;99.90;;;;;;4192593;28;20372;-68
2021/09/17 06:59:21;;;;;;;4.70;2.78;;;31.90;99.90;;;;;;4192219;28;20125;-70
2021/09/17 07:01:26;;;;;;;4.82;3.13;;;31.90;99.90;;;;;;4176882;28;20045;-68
2021/09/17 07:03:31;;;;;;;6.45;3.00;;;32.00;99.90;;;;;;4191923;28;20408;-69
2021/09/17 07:05:36;;;;;;;6.10;2.90;;;31.90;99.90;;;;;;4191896;28;20036;-67
2021/09/17 07:07:40;;;;;;;3.70;3.10;;;31.80;99.90;;;;;;4192517;28;20445;-69
2021/09/17 07:09:45;;;;;;;7.47;3.30;;;31.80;99.90;;;;;;4193151;28;20396;-69
2021/09/17 07:11:49;;;;;;;7.28;2.40;;;31.80;99.90;;;;;;4192940;28;20059;-69
2021/09/17 07:13:54;;;;;;;4.13;2.38;;;31.70;99.90;;;;;;4192778;28;20066;-68
2021/09/17 07:15:58;;;;;;;4.60;2.78;;;31.80;99.90;;;;;;4193138;28;20059;-68
2021/09/17 07:18:05;;;;;;;2.67;2.47;;;31.80;99.90;;;;;;4190987;28;20040;-68
2021/09/17 07:20:10;;;;;;;3.78;2.33;;;31.70;99.90;;;;;;4194070;28;20140;-68
2021/09/17 07:22:14;;;;;;;4.35;2.42;;;31.50;99.90;;;;;;4186534;28;20314;-68
2021/09/17 07:24:19;;;;;;;5.60;2.65;;;31.60;99.90;;;;;;4192808;28;20525;-69
2021/09/17 07:26:23;;;;;;;3.38;2.75;;;31.70;99.90;;;;;;4190094;28;20044;-68
2021/09/17 07:28:33;;;;;;;5.20;3.10;;;31.60;99.90;;;;;;4190675;28;20378;-69
2021/09/17 07:30:37;;;;;;;5.90;3.10;;;31.60;99.90;;;;;;4191731;28;20404;-68
2021/09/17 07:32:42;;;;;;;22.25;7.38;;;31.60;99.90;;;;;;4192220;28;20090;-70
2021/09/17 07:34:50;;;;;;;6.95;4.00;;;31.70;99.90;;;;;;4192497;28;20148;-69
2021/09/17 07:36:54;;;;;;;8.48;4.75;;;31.80;99.90;;;;;;4191295;28;20055;-69
2021/09/17 07:38:59;;;;;;;7.82;3.92;;;31.80;99.90;;;;;;4192213;28;20036;-70
2021/09/17 07:41:04;;;;;;;7.53;4.30;;;31.70;99.90;;;;;;4192043;28;20041;-70
2021/09/17 07:43:08;;;;;;;4.65;3.63;;;31.70;99.90;;;;;;4192826;28;20045;-69
2021/09/17 07:45:13;;;;;;;15.82;7.25;;;31.60;99.90;;;;;;4189466;28;20051;-69
2021/09/17 07:47:17;;;;;;;7.57;4.57;;;31.60;99.90;;;;;;4193602;28;20041;-69
2021/09/17 07:49:22;;;;;;;6.30;3.97;;;31.70;99.90;;;;;;4192641;28;20040;-69
2021/09/17 07:51:26;;;;;;;4.53;3.67;;;31.50;99.90;;;;;;4192746;28;20144;-69
2021/09/17 07:53:31;;;;;;;7.55;4.20;;;31.30;99.90;;;;;;4189344;28;20048;-69
2021/09/17 07:55:35;;;;;;;4.90;3.80;;;31.40;99.90;;;;;;4193902;28;20068;-70
2021/09/17 07:57:40;;;;;;;5.32;3.90;;;31.50;99.90;;;;;;4193507;28;20056;-69
2021/09/17 07:59:44;;;;;;;4.32;3.70;;;31.50;99.90;;;;;;4192848;28;20123;-69
2021/09/17 08:01:48;;;;;;;12.88;4.50;;;31.60;99.90;;;;;;4192968;28;20044;-69
2021/09/17 08:03:53;;;;;;;8.05;3.88;;;31.50;99.90;;;;;;4190235;28;20079;-69
2021/09/17 08:05:59;;;;;;;5.85;3.63;;;31.70;99.90;;;;;;4193277;28;20044;-72
2021/09/17 08:08:04;;;;;;;7.63;3.60;;;31.80;99.90;;;;;;4193143;28;20094;-70
2021/09/17 08:10:09;;;;;;;9.57;3.83;;;31.70;99.90;;;;;;4191832;28;20041;-70
2021/09/17 08:12:13;;;;;;;5.53;3.70;;;31.50;99.90;;;;;;4190077;28;20046;-69
2021/09/17 08:14:17;;;;;;;4.72;3.85;;;31.50;99.90;;;;;;4191183;28;20110;-69
2021/09/17 08:16:22;;;;;;;4.80;3.63;;;31.70;99.90;;;;;;4193657;28;20056;-69
2021/09/17 08:18:27;;;;;;;5.25;3.50;;;31.60;99.90;;;;;;4192372;28;20131;-70
2021/09/17 08:20:31;;;;;;;5.78;3.80;;;31.50;99.90;;;;;;4195133;28;20040;-70
2021/09/17 08:22:36;;;;;;;7.72;3.88;;;31.70;99.90;;;;;;4196028;28;20526;-70
2021/09/17 08:24:41;;;;;;;6.95;3.78;;;31.80;99.90;;;;;;4197060;28;20045;-71
2021/09/17 08:26:47;;;;;;;5.00;3.90;;;31.90;99.90;;;;;;4197793;28;20387;-71
2021/09/17 08:28:52;;;;;;;5.97;3.80;;;32.00;99.90;;;;;;4198939;28;20040;-71
2021/09/17 08:30:57;;;;;;;4.57;4.00;;;32.00;99.90;;;;;;4168583;28;20037;-70
2021/09/17 08:33:02;;;;;;;4.72;3.70;;;31.90;99.90;;;;;;4191380;28;20056;-70
2021/09/17 08:35:09;;;;;;;4.75;3.70;;;31.90;99.90;;;;;;4194299;28;20040;-69
2021/09/17 08:37:14;;;;;;;6.90;4.18;;;31.70;99.90;;;;;;4194061;28;20044;-67
2021/09/17 08:39:20;;;;;;;8.25;4.40;;;31.70;99.90;;;;;;4193881;28;20044;-68
2021/09/17 08:41:26;;;;;;;6.03;4.40;;;31.80;99.90;;;;;;4193614;28;20155;-68
2021/09/17 08:43:31;;;;;;;4.30;3.88;;;31.90;99.90;;;;;;4177049;28;20114;-68
2021/09/17 08:45:36;;;;;;;5.72;4.50;;;31.80;99.90;;;;;;4191131;28;20451;-69
2021/09/17 08:47:40;;;;;;;6.72;4.00;;;31.60;99.90;;;;;;4194007;28;20139;-69
2021/09/17 08:49:46;;;;;;;5.78;4.10;;;31.70;99.90;;;;;;4193847;28;20556;-69
2021/09/17 08:51:53;;;;;;;5.32;3.70;;;31.70;99.90;;;;;;4192766;28;20617;-69
2021/09/17 08:54:01;;;;;;;5.13;3.97;;;31.60;99.90;;;;;;4193194;28;20451;-70
2021/09/17 08:56:07;;;;;;;6.25;4.00;;;31.70;99.90;;;;;;4191916;28;20546;-69
2021/09/17 08:58:12;;;;;;;5.10;4.00;;;31.70;99.90;;;;;;4194391;28;20082;-70
2021/09/17 09:00:31;;;;;;;6.20;4.10;;;31.80;99.90;;;;;;4195396;28;20044;-70
2021/09/17 09:02:36;;;;;;;5.20;3.90;;;31.70;99.90;;;;;;4193517;28;20542;-69
2021/09/17 09:04:42;;;;;;;4.70;4.03;;;31.80;99.90;;;;;;4178364;28;20045;-69
2021/09/17 09:06:46;;;;;;;6.68;4.30;;;31.80;99.90;;;;;;4191976;28;20399;-69
2021/09/17 09:08:51;;;;;;;4.68;3.58;;;31.70;99.90;;;;;;4177799;28;20052;-69
2021/09/17 09:10:56;;;;;;;4.70;4.20;;;31.70;99.90;;;;;;4194115;28;20037;-70
2021/09/17 09:13:04;;;;;;;9.75;4.28;;;31.60;99.90;;;;;;4195606;28;20048;-71
2021/09/17 09:15:16;;;;;;;5.93;4.47;;;31.60;99.90;;;;;;4193788;28;20040;-70
2021/09/17 09:17:21;;;;;;;6.33;3.80;;;31.70;99.90;;;;;;4162445;28;20048;-70
2021/09/17 09:19:27;;;;;;;6.30;4.10;;;31.60;99.90;;;;;;4175604;28;20355;-70
2021/09/17 09:21:32;;;;;;;16.67;4.63;;;31.60;99.90;;;;;;4174344;28;20053;-71
2021/09/17 09:23:39;;;;;;;5.78;3.85;;;31.60;99.90;;;;;;4159855;28;20037;-73
2021/09/17 09:25:53;;;;;;;8.52;4.15;;;31.70;99.90;;;;;;4158424;28;20073;-70
2021/09/17 09:28:11;;;;;;;6.13;3.53;;;31.60;99.90;;;;;;4175842;28;20052;-69
2021/09/17 09:30:15;;;;;;;10.18;3.67;;;31.60;99.90;;;;;;4159480;28;20037;-71
2021/09/17 09:32:33;;;;;;;4.40;3.95;;;31.50;99.90;;;;;;4127695;28;20112;-70
2021/09/17 09:34:54;;;;;;;4.45;3.67;;;31.40;99.90;;;;;;4144057;28;20064;-72
2021/09/17 09:37:06;;;;;;;7.82;4.03;;;31.30;99.90;;;;;;4177205;28;20060;-71
2021/09/17 09:39:11;;;;;;;4.78;3.75;;;31.30;99.90;;;;;;4174490;28;20070;-70
2021/09/17 09:41:17;;;;;;;4.60;4.18;;;31.40;99.90;;;;;;4144521;28;20585;-71
2021/09/17 09:43:28;;;;;;;6.18;3.80;;;31.30;99.90;;;;;;4141707;28;20626;-71
2021/09/17 09:45:33;;;;;;;5.53;3.95;;;31.30;99.90;;;;;;4143789;28;20509;-71
2021/09/17 09:47:38;;;;;;;7.13;3.90;;;31.20;99.90;;;;;;4143895;28;20413;-70
2021/09/17 09:49:47;;;;;;;5.32;4.13;;;31.30;99.90;;;;;;4125309;28;20074;-71
2021/09/17 09:51:59;;;;;;;6.07;3.63;;;31.30;99.90;;;;;;4190571;28;20175;-71
2021/09/17 09:54:04;;;;;;;4.80;3.70;;;31.30;99.90;;;;;;4191474;28;20047;-70
2021/09/17 09:56:08;;;;;;;5.85;3.42;;;31.30;99.90;;;;;;4175887;28;20076;-69
2021/09/17 09:58:13;;;;;;;5.30;3.75;;;31.40;99.90;;;;;;4177436;28;20388;-70
2021/09/17 10:00:18;;;;;;;5.80;3.95;;;31.30;99.90;;;;;;4160929;28;20053;-71
2021/09/17 10:02:23;;;;;;;5.32;4.53;;;31.30;99.90;;;;;;4191389;28;20099;-69
2021/09/17 10:04:29;;;;;;;6.15;4.55;;;31.20;99.90;;;;;;4159805;28;20045;-70
2021/09/17 10:06:35;;;;;;;6.38;4.57;;;31.10;99.90;;;;;;4159851;28;20228;-70
2021/09/17 10:08:41;;;;;;;6.20;4.55;;;31.20;99.90;;;;;;4177130;28;20033;-70
2021/09/17 10:10:46;;;;;;;4.45;3.92;;;31.20;99.90;;;;;;4158843;28;20037;-70
2021/09/17 10:12:50;;;;;;;4.57;4.03;;;31.10;99.90;;;;;;4157295;28;20551;-71
2021/09/17 10:14:56;;;;;;;8.23;4.78;;;31.10;99.90;;;;;;4190427;28;20044;-70
2021/09/17 10:17:08;;;;;;;5.43;4.18;;;31.00;99.90;;;;;;4160548;28;20049;-70
2021/09/17 10:19:12;;;;;;;4.50;4.10;;;31.20;99.90;;;;;;4185833;28;20411;-70
2021/09/17 10:21:41;;;;;;;4.95;4.43;;;31.20;99.90;;;;;;4192009;28;20040;-71
2021/09/17 10:23:45;;;;;;;6.95;4.35;;;31.30;99.90;;;;;;4191406;28;20037;-71
2021/09/17 10:26:02;;;;;;;7.18;4.22;;;31.30;99.90;;;;;;4194000;28;20526;-70
2021/09/17 10:28:15;;;;;;;6.65;3.65;;;31.10;99.90;;;;;;4193996;28;20048;-70
2021/09/17 10:30:20;;;;;;;11.63;4.38;;;31.00;99.90;;;;;;4176918;28;20518;-70
2021/09/17 10:32:27;;;;;;;8.45;4.40;;;31.00;99.90;;;;;;4157989;28;20061;-71
2021/09/17 10:34:41;;;;;;;5.78;4.10;;;31.10;99.90;;;;;;4174622;28;20428;-70
2021/09/17 10:36:46;;;;;;;9.52;4.57;;;31.10;99.90;;;;;;4172125;28;20123;-71
2021/09/17 10:38:50;;;;;;;5.55;4.35;;;31.00;99.90;;;;;;4174422;28;20055;-71
2021/09/17 10:41:02;;;;;;;7.78;4.80;;;31.10;99.90;;;;;;4159249;28;20049;-70
2021/09/17 10:43:09;;;;;;;5.90;4.55;;;31.20;99.90;;;;;;4158002;28;20579;-70
2021/09/17 10:45:17;;;;;;;8.45;5.53;;;31.20;99.90;;;;;;4174016;28;20156;-70
2021/09/17 10:47:40;;;;;;;7.78;5.00;;;31.10;99.90;;;;;;4175297;28;20381;-71
2021/09/17 10:50:01;;;;;;;9.07;5.78;;;31.10;99.90;;;;;;4175439;28;20045;-71
2021/09/17 10:52:36;;;;;;;9.00;6.18;;;31.10;99.90;;;;;;4158876;28;20057;-71